Time;durP1;ratioP1;P1;durP2;ratioP2;P2;SDS_P1;SDS_P2;PMS_P1;PMS_P2;Temp;Humidity;BMP_temperature;BMP_pressure;BME280_temperature;BME280_humidity;BME280_pressure;Samples;Min_cycle;Max_cycle;Signal;HPM_P1;HPM_P2
2023/03/03 00:02:41;;;;;;;13.50;11.00;;;;;;;6.11;49.18;100503.66;10486925;28;20109;-54
2023/03/03 00:07:44;;;;;;;13.38;11.57;;;;;;;5.99;49.79;100506.06;10473937;28;20048;-54
2023/03/03 00:12:48;;;;;;;12.43;10.50;;;;;;;5.68;50.30;100471.75;10465034;28;20066;-54
2023/03/03 00:17:50;;;;;;;13.87;12.37;;;;;;;5.94;50.50;100518.63;10486684;28;20146;-54
2023/03/03 00:22:52;;;;;;;17.05;12.35;;;;;;;5.91;51.17;100521.47;10485224;28;20086;-54
2023/03/03 00:27:53;;;;;;;15.50;13.40;;;;;;;5.88;51.45;100526.91;10485155;28;20048;-54
2023/03/03 00:32:55;;;;;;;16.33;12.50;;;;;;;5.79;52.12;100519.53;10485739;28;20036;-54
2023/03/03 00:37:59;;;;;;;15.65;13.57;;;;;;;5.81;52.10;100538.75;10472316;28;20140;-54
2023/03/03 00:43:11;;;;;;;17.50;14.00;;;;;;;5.69;53.58;100540.34;10490438;28;20140;-54
2023/03/03 00:48:21;;;;;;;17.77;15.13;;;;;;;5.64;53.52;100537.94;10490776;28;20140;-53
2023/03/03 00:53:28;;;;;;;19.90;15.38;;;;;;;5.69;54.56;100539.47;10495922;28;20461;-53
2023/03/03 00:58:30;;;;;;;17.27;15.48;;;;;;;5.63;54.88;100541.50;10492190;28;20081;-54
2023/03/03 01:03:31;;;;;;;19.17;15.32;;;;;;;5.54;55.19;100531.47;10494188;28;20720;-54
2023/03/03 01:08:33;;;;;;;20.45;16.08;;;;;;;5.61;55.54;100542.53;10494613;28;20055;-54
2023/03/03 01:13:36;;;;;;;18.98;16.45;;;;;;;5.50;55.58;100532.56;10492616;28;20821;-54
2023/03/03 01:18:40;;;;;;;23.58;17.88;;;;;;;5.69;54.97;100544.75;10483199;28;20607;-54
2023/03/03 01:23:42;;;;;;;18.15;15.30;;;;;;;5.59;55.71;100534.69;10489356;28;20063;-53
2023/03/03 01:28:43;;;;;;;20.70;16.63;;;;;;;5.56;56.18;100537.50;10493401;28;20137;-54
2023/03/03 01:33:45;;;;;;;18.27;16.30;;;;;;;5.44;56.31;100536.38;10489563;28;20668;-54
2023/03/03 01:38:46;;;;;;;20.23;17.50;;;;;;;5.41;57.01;100541.00;10492922;28;20269;-52
2023/03/03 01:43:49;;;;;;;20.65;16.75;;;;;;;5.38;56.85;100541.16;10474242;28;20514;-54
2023/03/03 01:48:56;;;;;;;20.10;16.83;;;;;;;5.36;56.93;100527.16;10460321;28;20048;-55
2023/03/03 01:54:02;;;;;;;21.73;18.13;;;;;;;5.29;58.05;100532.78;10489603;28;20118;-54
2023/03/03 01:59:11;;;;;;;;;;;;;;;5.28;57.96;100525.81;10491147;28;20051;-53
2023/03/03 02:04:14;;;;;;;22.13;17.42;;;;;;;5.11;58.15;100502.94;10474341;28;20207;-53
2023/03/03 02:09:43;;;;;;;21.80;18.40;;;;;;;5.24;58.13;100524.28;10493113;28;20051;-54
2023/03/03 02:14:44;;;;;;;21.60;19.25;;;;;;;5.21;58.49;100515.66;10475402;28;20063;-58
2023/03/03 02:20:05;;;;;;;23.67;18.88;;;;;;;5.27;57.84;100529.38;10484421;28;20052;-53
2023/03/03 02:25:13;;;;;;;22.85;19.45;;;;;;;5.25;57.71;100531.22;10490561;28;24813;-53
2023/03/03 02:30:18;;;;;;;22.17;18.25;;;;;;;5.22;58.14;100528.75;10473836;28;20119;-54
2023/03/03 02:35:32;;;;;;;;;;;;;;;5.20;58.18;100528.00;10486315;28;20048;-54
2023/03/03 02:40:39;;;;;;;23.27;19.20;;;;;;;5.08;58.66;100528.66;10488825;28;19924;-53
2023/03/03 02:45:43;;;;;;;25.45;19.73;;;;;;;4.93;58.96;100511.88;10487861;28;20934;-54
2023/03/03 02:50:44;;;;;;;25.13;20.15;;;;;;;4.97;59.28;100537.16;10476694;28;20052;-54
2023/03/03 02:55:45;;;;;;;26.48;20.67;;;;;;;5.00;59.02;100536.13;10452068;28;20063;-53
2023/03/03 03:00:47;;;;;;;25.75;21.00;;;;;;;4.85;59.23;100530.72;10468173;28;20059;-58
2023/03/03 03:05:49;;;;;;;25.40;20.13;;;;;;;4.92;59.28;100545.31;10486020;28;20060;-55
2023/03/03 03:10:51;;;;;;;24.55;20.40;;;;;;;4.86;59.48;100535.06;10484459;28;20063;-54
2023/03/03 03:15:53;;;;;;;24.83;20.63;;;;;;;4.81;59.80;100542.38;10467951;28;20707;-53
2023/03/03 03:20:54;;;;;;;29.08;22.65;;;;;;;4.76;60.14;100541.78;10482983;28;20080;-53
2023/03/03 03:25:55;;;;;;;27.95;22.13;;;;;;;4.72;60.29;100538.41;10469896;28;20052;-53
2023/03/03 03:30:57;;;;;;;26.83;21.08;;;;;;;4.71;60.50;100546.41;10484482;28;20099;-53
2023/03/03 03:35:59;;;;;;;26.70;21.08;;;;;;;4.73;59.65;100545.41;10457015;28;20048;-54
2023/03/03 03:41:00;;;;;;;29.27;21.30;;;;;;;4.57;60.56;100550.59;10483622;28;20460;-53
2023/03/03 03:46:02;;;;;;;26.75;22.48;;;;;;;4.47;61.50;100553.78;10467674;28;20144;-53
2023/03/03 03:51:04;;;;;;;27.55;22.67;;;;;;;4.49;61.32;100563.34;10488213;28;20048;-53
2023/03/03 03:56:05;;;;;;;28.45;22.55;;;;;;;4.45;61.79;100555.66;10486745;28;20503;-57
2023/03/03 04:01:07;;;;;;;29.90;23.75;;;;;;;4.41;61.77;100560.22;10484821;28;20048;-54
2023/03/03 04:06:09;;;;;;;28.23;22.90;;;;;;;4.43;61.48;100561.00;10487099;28;20514;-53
2023/03/03 04:11:10;;;;;;;32.25;25.30;;;;;;;4.40;62.09;100559.38;10485443;28;20067;-53
2023/03/03 04:16:12;;;;;;;31.73;23.95;;;;;;;4.40;61.66;100571.69;10483665;28;20044;-54
2023/03/03 04:21:14;;;;;;;28.45;22.77;;;;;;;4.28;61.81;100553.84;10471281;28;20067;-60
2023/03/03 04:26:16;;;;;;;31.92;24.52;;;;;;;4.28;62.21;100565.25;10474085;28;20127;-54
2023/03/03 04:31:19;;;;;;;33.67;24.75;;;;;;;4.20;62.42;100570.03;10472366;28;20119;-54
2023/03/03 04:36:20;;;;;;;32.58;25.27;;;;;;;4.13;62.68;100564.22;10486538;28;20048;-54
2023/03/03 04:41:22;;;;;;;30.77;25.05;;;;;;;4.08;62.65;100566.22;10484138;28;20048;-53
2023/03/03 04:46:23;;;;;;;31.08;24.67;;;;;;;4.04;63.09;100573.41;10484497;28;20052;-53
2023/03/03 04:51:25;;;;;;;32.83;25.27;;;;;;;4.00;62.90;100581.53;10483382;28;20536;-55
2023/03/03 04:56:30;;;;;;;30.35;25.38;;;;;;;3.97;63.05;100576.44;10481997;28;20052;-54
2023/03/03 05:01:31;;;;;;;32.05;26.55;;;;;;;3.88;63.36;100573.28;10460399;28;20713;-54
2023/03/03 05:06:33;;;;;;;33.42;25.50;;;;;;;3.88;63.31;100589.09;10482113;28;20044;-52
2023/03/03 05:11:35;;;;;;;32.65;24.95;;;;;;;3.72;63.67;100588.09;10463877;28;20048;-53
2023/03/03 05:16:36;;;;;;;33.90;25.42;;;;;;;3.72;64.09;100594.25;10483612;28;20848;-55
2023/03/03 05:21:41;;;;;;;31.50;24.92;;;;;;;3.72;64.25;100601.25;10464307;28;20043;-52
2023/03/03 05:26:43;;;;;;;31.42;25.65;;;;;;;3.65;64.74;100597.25;10455773;28;20055;-53
2023/03/03 05:31:44;;;;;;;33.88;26.70;;;;;;;3.60;65.02;100596.56;10483068;28;20488;-52
2023/03/03 05:36:46;;;;;;;32.35;26.25;;;;;;;3.50;65.19;100589.09;10466021;28;20052;-52
2023/03/03 05:41:48;;;;;;;36.08;26.23;;;;;;;3.49;65.51;100611.06;10456465;28;20581;-53
2023/03/03 05:46:49;;;;;;;33.30;26.55;;;;;;;3.48;65.62;100598.84;10446557;28;20067;-52
2023/03/03 05:51:51;;;;;;;36.42;27.17;;;;;;;3.50;66.20;100615.44;10459410;28;20064;-52
2023/03/03 05:56:52;;;;;;;32.53;26.85;;;;;;;3.51;65.85;100601.34;10461151;28;20550;-52
2023/03/03 06:01:53;;;;;;;38.15;26.95;;;;;;;3.53;66.31;100619.72;10451783;28;20044;-52
2023/03/03 06:06:55;;;;;;;34.03;26.20;;;;;;;3.64;66.03;100627.09;10450278;28;20051;-52
2023/03/03 06:11:56;;;;;;;35.88;26.95;;;;;;;3.65;66.06;100639.34;10460033;28;20067;-52
2023/03/03 06:16:58;;;;;;;38.78;27.50;;;;;;;3.72;66.04;100638.13;10425651;28;20060;-52
2023/03/03 06:21:59;;;;;;;34.75;25.58;;;;;;;3.62;66.52;100639.47;10457259;28;20047;-52
2023/03/03 06:27:01;;;;;;;33.85;25.23;;;;;;;3.60;66.53;100657.13;10455889;28;20530;-53
2023/03/03 06:32:03;;;;;;;31.90;25.17;;;;;;;3.68;66.38;100661.13;10430881;28;20056;-52
2023/03/03 06:37:05;;;;;;;32.47;24.98;;;;;;;3.72;65.83;100667.09;10449261;28;20059;-53
2023/03/03 06:42:08;;;;;;;35.45;24.80;;;;;;;3.75;65.25;100674.84;10453544;28;20755;-52
2023/03/03 06:47:09;;;;;;;30.70;24.83;;;;;;;3.68;65.84;100670.81;10462215;28;20135;-53
2023/03/03 06:52:23;;;;;;;32.05;24.55;;;;;;;3.65;65.42;100687.59;10441730;28;20055;-53
2023/03/03 06:57:30;;;;;;;34.47;25.13;;;;;;;3.71;65.79;100692.59;10443268;28;20155;-53
2023/03/03 07:02:32;;;;;;;32.55;24.58;;;;;;;3.86;65.45;100709.47;10456162;28;20495;-53
2023/03/03 07:07:33;;;;;;;34.33;26.25;;;;;;;3.76;66.11;100708.16;10443718;28;20060;-53
2023/03/03 07:12:35;;;;;;;30.58;23.67;;;;;;;3.86;65.56;100717.38;10461941;28;20644;-54
2023/03/03 07:17:47;;;;;;;33.10;24.15;;;;;;;3.81;66.01;100724.59;10466679;28;20409;-53
2023/03/03 07:22:52;;;;;;;41.53;35.60;;;;;;;4.08;65.62;100721.66;10458873;28;20599;-56
2023/03/03 07:27:59;;;;;;;36.55;28.27;;;;;;;4.17;64.96;100720.38;10433653;28;20052;-54
2023/03/03 07:33:01;;;;;;;39.92;28.60;;;;;;;4.07;64.41;100749.78;10439350;28;20152;-54
2023/03/03 07:38:11;;;;;;;39.95;28.83;;;;;;;4.09;64.80;100746.25;10437214;28;20120;-53
2023/03/03 07:43:35;;;;;;;32.50;25.48;;;;;;;4.18;64.00;100754.56;10447881;28;20056;-54
2023/03/03 07:48:40;;;;;;;38.70;31.42;;;;;;;3.98;64.61;100715.09;10422523;28;20193;-56
2023/03/03 07:53:42;;;;;;;47.45;33.58;;;;;;;4.27;64.24;100778.81;10433235;28;20150;-54
2023/03/03 07:58:43;;;;;;;32.92;23.83;;;;;;;4.22;64.04;100755.28;10434360;28;20055;-54
2023/03/03 08:03:48;;;;;;;33.15;23.80;;;;;;;4.35;64.03;100776.66;10439025;28;21235;-54
2023/03/03 08:08:49;;;;;;;29.80;22.10;;;;;;;4.40;63.71;100775.53;10448758;28;20059;-54
2023/03/03 08:13:51;;;;;;;30.33;23.63;;;;;;;4.38;63.62;100772.13;10440733;28;20048;-54
2023/03/03 08:18:57;;;;;;;30.05;22.38;;;;;;;4.46;63.63;100779.66;10448610;28;20208;-58
2023/03/03 08:23:59;;;;;;;33.17;23.17;;;;;;;4.59;63.19;100764.97;10453355;28;20053;-54
2023/03/03 08:29:01;;;;;;;31.27;23.13;;;;;;;4.71;62.82;100770.56;10452493;28;20524;-54
2023/03/03 08:34:03;;;;;;;28.70;22.27;;;;;;;4.80;61.94;100777.19;10432559;28;20584;-54
2023/03/03 08:39:06;;;;;;;30.20;23.02;;;;;;;4.55;62.55;100773.09;10452048;28;20059;-55
2023/03/03 08:44:07;;;;;;;34.33;22.88;;;;;;;4.91;61.81;100791.59;10447963;28;20052;-54
2023/03/03 08:49:08;;;;;;;29.52;22.27;;;;;;;5.01;61.37;100772.66;10437172;28;20672;-55
2023/03/03 08:54:10;;;;;;;28.00;21.52;;;;;;;5.35;60.07;100792.97;10436521;28;20730;-54
2023/03/03 08:59:12;;;;;;;29.48;22.23;;;;;;;5.42;59.39;100789.09;10424994;28;20072;-53
2023/03/03 09:04:14;;;;;;;26.92;19.92;;;;;;;5.58;58.74;100790.94;10457998;28;20609;-54
2023/03/03 09:09:15;;;;;;;28.52;21.17;;;;;;;5.75;58.26;100784.78;10453518;28;20060;-54
2023/03/03 09:14:17;;;;;;;28.65;21.90;;;;;;;5.74;57.80;100770.72;10453907;28;20048;-54
2023/03/03 09:19:29;;;;;;;27.20;20.50;;;;;;;5.90;57.46;100796.34;10451391;28;20113;-53
2023/03/03 09:24:35;;;;;;;24.02;19.50;;;;;;;6.04;57.39;100800.97;10453583;28;20055;-53
2023/03/03 09:29:38;;;;;;;26.73;20.13;;;;;;;6.09;57.00;100801.56;10408623;28;21448;-53
2023/03/03 09:34:41;;;;;;;26.40;19.95;;;;;;;6.23;56.43;100804.34;10446749;28;20120;-54
2023/03/03 09:39:44;;;;;;;26.23;19.50;;;;;;;6.33;55.72;100802.88;10444068;28;20750;-54
2023/03/03 09:45:07;;;;;;;25.98;19.55;;;;;;;6.72;54.96;100806.94;10438346;28;20040;-54
2023/03/03 09:50:33;;;;;;;29.17;19.60;;;;;;;7.28;53.50;100806.47;10459694;28;20089;-54
2023/03/03 09:55:53;;;;;;;22.75;16.48;;;;;;;8.03;51.09;100809.09;10446911;28;20114;-55
2023/03/03 10:01:01;;;;;;;27.60;16.75;;;;;;;8.58;49.82;100803.97;10453793;28;20355;-55
2023/03/03 10:06:21;;;;;;;21.60;16.40;;;;;;;9.41;47.91;100811.84;10453982;28;20687;-55
2023/03/03 10:11:41;;;;;;;21.40;15.57;;;;;;;10.45;45.25;100813.66;10439188;28;20745;-54
2023/03/03 10:17:08;;;;;;;17.50;14.85;;;;;;;12.62;41.22;100820.47;10455323;28;20518;-54
2023/03/03 10:22:19;;;;;;;17.60;14.70;;;;;;;14.11;37.36;100826.00;10450197;28;20514;-55
2023/03/03 10:27:23;;;;;;;17.25;14.38;;;;;;;13.85;37.31;100832.75;10452948;28;20125;-55
2023/03/03 10:32:40;;;;;;;17.73;14.18;;;;;;;14.64;36.21;100838.38;10438441;28;20087;-55
2023/03/03 10:37:51;;;;;;;16.63;13.85;;;;;;;13.94;36.79;100808.69;10446883;28;20048;-56
2023/03/03 10:43:32;;;;;;;16.05;13.20;;;;;;;14.47;36.43;100826.44;10448637;28;20183;-56
2023/03/03 10:48:36;;;;;;;15.88;12.45;;;;;;;15.76;33.83;100837.22;10437351;28;20043;-56
2023/03/03 10:54:05;;;;;;;17.35;12.80;;;;;;;18.85;29.01;100825.50;10450419;28;20055;-54
2023/03/03 10:59:24;;;;;;;13.15;11.68;;;;;;;20.63;25.93;100825.81;10451066;28;20156;-55
2023/03/03 11:05:19;;;;;;;13.68;11.57;;;;;;;22.12;23.73;100822.91;10438991;28;20622;-55
2023/03/03 11:10:36;;;;;;;13.82;11.77;;;;;;;22.59;23.20;100828.00;10230919;28;20207;-56
2023/03/03 11:15:56;;;;;;;14.73;11.43;;;;;;;24.00;21.84;100819.44;10430063;28;20052;-54
2023/03/03 11:21:17;;;;;;;13.30;11.90;;;;;;;24.53;20.77;100823.53;10453545;28;20060;-54
2023/03/03 11:26:40;;;;;;;12.35;10.73;;;;;;;24.96;19.76;100817.81;10447992;28;20588;-55
2023/03/03 11:32:05;;;;;;;;;;;;;;;25.71;19.36;100808.75;10445294;28;20134;-55
2023/03/03 11:37:36;;;;;;;12.63;11.32;;;;;;;25.24;19.69;100795.91;10446420;28;19940;-55
2023/03/03 11:43:14;;;;;;;12.02;10.73;;;;;;;26.19;18.67;100789.41;10451070;28;20906;-54
2023/03/03 11:48:47;;;;;;;11.45;10.10;;;;;;;26.57;18.42;100783.19;10436718;28;20059;-55
2023/03/03 11:53:57;;;;;;;11.75;10.75;;;;;;;27.59;17.16;100776.91;10450070;28;20082;-54
2023/03/03 11:59:31;;;;;;;11.45;10.45;;;;;;;28.14;16.94;100778.94;10448281;28;20047;-54
2023/03/03 12:04:54;;;;;;;11.63;10.50;;;;;;;28.89;16.33;100769.59;10432424;28;20048;-53
2023/03/03 12:10:18;;;;;;;11.63;10.43;;;;;;;28.96;15.93;100771.38;10433492;28;20105;-54
2023/03/03 12:15:27;;;;;;;11.23;10.20;;;;;;;29.05;15.68;100759.88;10437690;28;20047;-54
2023/03/03 12:21:02;;;;;;;10.75;9.82;;;;;;;29.35;15.32;100745.31;10450242;28;20052;-55
2023/03/03 12:26:09;;;;;;;11.23;10.23;;;;;;;29.34;15.03;100729.94;10451447;28;20519;-54
2023/03/03 12:31:37;;;;;;;10.15;9.25;;;;;;;30.28;14.73;100731.78;10449558;28;20071;-54
2023/03/03 12:37:08;;;;;;;11.50;10.30;;;;;;;29.89;14.44;100726.03;10424714;28;20044;-54
2023/03/03 12:42:20;;;;;;;10.20;9.27;;;;;;;30.91;13.85;100720.94;10433001;28;20519;-55
2023/03/03 12:47:44;;;;;;;9.85;9.02;;;;;;;31.34;13.42;100718.63;10447132;28;20500;-55
2023/03/03 12:52:58;;;;;;;9.73;8.82;;;;;;;31.01;14.10;100721.09;10458269;28;20606;-55
2023/03/03 12:58:39;;;;;;;10.98;9.88;;;;;;;30.97;13.78;100719.94;10449506;28;20154;-57
2023/03/03 13:04:07;;;;;;;19.75;18.13;;;;;;;30.76;13.88;100709.63;10454627;28;20058;-55
2023/03/03 13:09:23;;;;;;;20.02;18.30;;;;;;;30.77;13.59;100703.06;10451352;28;20048;-56
2023/03/03 13:14:41;;;;;;;21.52;19.60;;;;;;;29.93;14.51;100691.53;10447992;28;20059;-55
2023/03/03 13:20:01;;;;;;;15.63;14.07;;;;;;;30.00;14.39;100685.91;10452556;28;20753;-55
2023/03/03 13:25:33;;;;;;;12.57;11.48;;;;;;;30.39;13.94;100688.06;10432209;28;20044;-57
2023/03/03 13:30:39;;;;;;;13.23;12.07;;;;;;;30.37;13.53;100684.72;10447572;28;20101;-56
2023/03/03 13:35:48;;;;;;;11.65;9.52;;;;;;;31.40;13.13;100681.88;10427051;28;20109;-55
2023/03/03 13:41:02;;;;;;;10.53;9.50;;;;;;;31.48;13.14;100680.59;10428615;28;20579;-57
2023/03/03 13:46:11;;;;;;;8.68;7.88;;;;;;;31.93;12.88;100674.09;10434654;28;20052;-56
2023/03/03 13:51:25;;;;;;;8.93;7.65;;;;;;;32.22;12.53;100671.19;10446479;28;20571;-56
2023/03/03 13:56:38;;;;;;;8.13;7.50;;;;;;;32.42;12.50;100670.56;10454915;28;20977;-57
2023/03/03 14:02:14;;;;;;;7.25;6.65;;;;;;;32.54;12.22;100656.63;10456990;28;20397;-56
2023/03/03 14:07:31;;;;;;;8.05;7.03;;;;;;;32.48;12.23;100663.19;10442215;28;20052;-56
2023/03/03 14:12:54;;;;;;;7.57;6.85;;;;;;;32.19;12.50;100660.69;10418177;28;20599;-56
2023/03/03 14:18:26;;;;;;;7.80;7.10;;;;;;;32.50;11.97;100649.97;10443728;28;20044;-56
2023/03/03 14:23:46;;;;;;;7.78;7.13;;;;;;;31.68;12.33;100647.91;10438091;28;20075;-61
2023/03/03 14:28:51;;;;;;;7.35;6.53;;;;;;;30.60;13.51;100645.38;10428712;22;20733;-75
2023/03/03 14:34:00;;;;;;;7.60;7.00;;;;;;;30.56;13.62;100644.19;10423361;28;20531;-72
2023/03/03 14:39:01;;;;;;;7.95;7.18;;;;;;;30.19;13.59;100634.44;10403205;28;20064;-71
2023/03/03 14:44:28;;;;;;;9.23;8.20;;;;;;;30.27;13.42;100639.50;10422053;28;20055;-72
2023/03/03 14:49:35;;;;;;;7.78;7.07;;;;;;;30.04;13.49;100642.34;10424997;28;20361;-74
2023/03/03 14:54:40;;;;;;;7.18;6.57;;;;;;;29.39;14.23;100636.00;10420150;28;20410;-73
2023/03/03 14:59:59;;;;;;;7.03;6.43;;;;;;;26.06;16.50;100637.53;10421636;28;20074;-74
2023/03/03 15:05:26;;;;;;;7.78;6.97;;;;;;;22.98;19.58;100635.09;10437940;28;20059;-72
2023/03/03 15:10:33;;;;;;;9.77;7.00;;;;;;;20.47;22.63;100621.22;10428922;28;20126;-73
2023/03/03 15:15:50;;;;;;;11.00;7.60;;;;;;;19.03;24.72;100629.31;10421945;28;20093;-72
2023/03/03 15:21:00;;;;;;;7.50;6.80;;;;;;;17.74;26.12;100635.88;10419620;28;20048;-70
2023/03/03 15:26:12;;;;;;;7.28;6.57;;;;;;;16.83;27.30;100634.44;10407677;28;20080;-72
2023/03/03 15:31:16;;;;;;;6.75;6.05;;;;;;;15.97;28.37;100642.94;10425857;28;20535;-72
2023/03/03 15:36:43;;;;;;;6.57;5.80;;;;;;;15.12;29.91;100622.31;10418104;28;20378;-71
2023/03/03 15:42:10;;;;;;;6.68;6.03;;;;;;;14.89;30.95;100643.19;10423836;28;20049;-72
2023/03/03 15:47:23;;;;;;;6.35;5.75;;;;;;;14.26;31.67;100636.41;10422496;28;20600;-72
2023/03/03 15:52:41;;;;;;;6.95;6.25;;;;;;;14.02;32.17;100638.56;10423565;28;20056;-71
2023/03/03 15:57:51;;;;;;;7.75;6.40;;;;;;;13.66;33.15;100639.03;10424785;28;20676;-72
2023/03/03 16:03:14;;;;;;;6.32;5.72;;;;;;;13.38;33.70;100633.38;10433958;28;20509;-72
2023/03/03 16:08:24;;;;;;;8.43;5.50;;;;;;;12.92;34.30;100639.94;10404845;28;20052;-71
2023/03/03 16:13:58;;;;;;;6.15;5.35;;;;;;;12.63;34.80;100637.06;10423201;28;20110;-70
2023/03/03 16:19:04;;;;;;;6.78;5.57;;;;;;;12.37;35.45;100648.91;10414849;28;20087;-70
2023/03/03 16:24:39;;;;;;;5.75;5.15;;;;;;;12.06;35.99;100641.72;10421021;28;20114;-69
2023/03/03 16:30:04;;;;;;;10.90;6.25;;;;;;;11.88;36.62;100647.50;10404304;28;20070;-70
2023/03/03 16:35:11;;;;;;;;;;;;;;;11.60;37.28;100663.00;10418507;28;20076;-69
2023/03/03 16:40:23;;;;;;;6.65;5.45;;;;;;;11.45;37.62;100658.88;10422629;28;19921;-70
2023/03/03 16:45:37;;;;;;;6.90;5.10;;;;;;;11.19;38.25;100663.56;10426438;28;20052;-71
2023/03/03 16:50:55;;;;;;;11.55;6.32;;;;;;;11.13;40.45;100668.38;10402016;28;20320;-69
2023/03/03 16:56:21;;;;;;;8.20;4.65;;;;;;;10.95;39.22;100678.63;10421016;28;20419;-71
2023/03/03 17:01:57;;;;;;;7.35;5.13;;;;;;;10.72;39.96;100672.38;10413795;28;20584;-70
2023/03/03 17:07:14;;;;;;;7.65;4.60;;;;;;;10.52;40.46;100678.31;10394825;28;20503;-72
2023/03/03 17:12:24;;;;;;;8.85;5.63;;;;;;;10.37;41.44;100690.94;10443546;28;20068;-68
2023/03/03 17:18:01;;;;;;;7.15;5.35;;;;;;;10.27;41.37;100694.22;10448590;28;20136;-70
2023/03/03 17:23:08;;;;;;;5.78;4.85;;;;;;;10.07;41.38;100694.78;10430850;28;20056;-72
2023/03/03 17:28:47;;;;;;;9.10;6.30;;;;;;;9.95;41.59;100703.66;10433819;28;20055;-72
2023/03/03 17:34:04;;;;;;;7.82;5.28;;;;;;;9.66;42.26;100714.53;10423337;28;20617;-73
2023/03/03 17:39:18;;;;;;;5.65;4.55;;;;;;;9.55;42.22;100720.59;10401800;28;20116;-68
2023/03/03 17:44:44;;;;;;;6.10;5.03;;;;;;;9.41;42.74;100721.50;10421622;28;20052;-69
2023/03/03 17:49:55;;;;;;;5.97;5.13;;;;;;;9.25;43.14;100736.78;10422370;28;20044;-72
2023/03/03 17:55:30;;;;;;;7.60;4.45;;;;;;;9.11;43.38;100740.38;10424373;28;20071;-68
2023/03/03 18:00:31;;;;;;;;;;;;;;;8.99;43.74;100742.03;10423047;28;20048;-71
2023/03/03 18:06:21;;;;;;;7.45;5.15;;;;;;;8.81;44.08;100749.41;10406080;28;19947;-71
2023/03/03 18:11:55;;;;;;;7.40;5.60;;;;;;;8.70;43.86;100757.22;10418838;28;20048;-69
2023/03/03 18:17:15;;;;;;;7.55;5.65;;;;;;;8.41;44.55;100757.28;10426537;28;20052;-69
2023/03/03 18:22:29;;;;;;;7.82;5.68;;;;;;;8.41;44.57;100757.28;10400759;28;20663;-70
2023/03/03 18:27:31;;;;;;;7.45;5.85;;;;;;;8.35;45.10;100774.41;10406808;28;20144;-71
2023/03/03 18:32:54;;;;;;;9.05;5.63;;;;;;;8.22;45.08;100776.97;10421937;28;20157;-71
2023/03/03 18:38:16;;;;;;;8.90;5.43;;;;;;;8.09;45.45;100770.72;10423568;28;20048;-70
2023/03/03 18:43:42;;;;;;;9.20;5.78;;;;;;;7.96;45.75;100783.91;10421123;28;20044;-71
2023/03/03 18:49:06;;;;;;;9.75;6.40;;;;;;;7.92;47.14;100787.66;10417379;28;20257;-71
2023/03/03 18:54:10;;;;;;;9.02;7.05;;;;;;;7.68;46.42;100780.25;10395771;28;20056;-71
2023/03/03 18:59:51;;;;;;;19.50;14.43;;;;;;;7.71;47.27;100801.25;10416488;28;20540;-71
2023/03/03 19:05:03;;;;;;;10.02;7.35;;;;;;;7.59;47.48;100812.59;10415230;28;20084;-72
2023/03/03 19:10:43;;;;;;;8.50;6.70;;;;;;;7.49;48.18;100816.72;10421443;28;20050;-70
2023/03/03 19:15:51;;;;;;;8.57;7.15;;;;;;;7.36;48.54;100817.44;10415596;28;20517;-70
2023/03/03 19:21:00;;;;;;;11.48;7.85;;;;;;;7.28;48.94;100818.81;10429468;28;20495;-70
2023/03/03 19:26:24;;;;;;;8.68;7.07;;;;;;;7.20;48.91;100829.88;10416784;28;20049;-71
2023/03/03 19:31:33;;;;;;;11.55;8.18;;;;;;;7.13;49.05;100837.31;10352849;28;1462799;-71
2023/03/03 19:36:53;;;;;;;9.23;7.78;;;;;;;7.00;49.63;100836.31;10416162;28;20132;-70
2023/03/03 19:42:10;;;;;;;8.27;6.88;;;;;;;6.85;49.58;100822.97;10417241;28;20253;-71
2023/03/03 19:47:12;;;;;;;8.43;5.38;;;;;;;6.84;49.55;100829.19;10422382;28;20945;-72
2023/03/03 19:52:25;;;;;;;7.93;6.35;;;;;;;6.69;49.94;100828.25;10423451;28;20116;-70
2023/03/03 19:57:52;;;;;;;7.93;6.28;;;;;;;6.75;49.86;100823.59;10420121;28;20060;-71
2023/03/03 20:03:38;;;;;;;7.68;6.55;;;;;;;6.58;50.53;100835.09;10415185;28;20139;-71
2023/03/03 20:08:42;;;;;;;;;;;;;;;6.40;50.70;100832.50;10425900;28;20053;-70
2023/03/03 20:13:55;;;;;;;8.27;5.68;;;;;;;6.26;51.30;100835.91;10426063;28;19927;-70
2023/03/03 20:19:06;;;;;;;9.95;6.40;;;;;;;6.20;51.70;100833.59;10420943;28;20121;-68
2023/03/03 20:24:40;;;;;;;9.63;6.60;;;;;;;6.17;51.79;100842.53;10414934;28;20474;-71
2023/03/03 20:30:45;;;;;;;8.43;6.20;;;;;;;5.98;52.44;100834.69;10417926;28;20131;-69
2023/03/03 20:36:02;;;;;;;11.27;7.13;;;;;;;6.04;52.62;100846.72;10320497;28;20063;-70
2023/03/03 20:41:24;;;;;;;9.30;7.13;;;;;;;6.10;52.71;100866.72;10418498;28;20698;-69
2023/03/03 20:46:32;;;;;;;9.13;7.00;;;;;;;6.00;52.83;100866.31;10408841;28;20653;-70
2023/03/03 20:51:43;;;;;;;10.57;7.20;;;;;;;5.91;53.21;100857.03;10413142;28;20136;-70
2023/03/03 20:57:27;;;;;;;11.23;7.45;;;;;;;5.72;53.17;100845.69;10435264;28;20428;-72
2023/03/03 21:02:46;;;;;;;9.98;6.78;;;;;;;5.76;53.46;100873.69;10408805;28;20084;-69
2023/03/03 21:07:57;;;;;;;10.27;7.18;;;;;;;5.72;53.95;100872.13;10410080;28;20123;-70
2023/03/03 21:13:25;;;;;;;8.77;6.40;;;;;;;5.69;54.36;100864.34;10429282;28;20045;-70
2023/03/03 21:18:26;;;;;;;10.95;7.55;;;;;;;5.63;54.53;100869.03;10430523;28;20056;-71
2023/03/03 21:23:28;;;;;;;12.85;10.57;;;;;;;5.65;54.61;100875.06;10440313;28;20056;-70
2023/03/03 21:28:32;;;;;;;11.23;8.25;;;;;;;5.58;54.55;100864.91;10427931;28;20075;-70
2023/03/03 21:33:54;;;;;;;10.23;7.70;;;;;;;5.58;54.60;100868.38;10426699;28;20095;-69
2023/03/03 21:38:57;;;;;;;12.20;9.15;;;;;;;5.48;54.88;100875.91;10435672;28;20049;-69
2023/03/03 21:43:58;;;;;;;10.48;7.95;;;;;;;5.39;55.02;100865.81;10405234;28;20052;-69
2023/03/03 21:49:00;;;;;;;12.63;8.30;;;;;;;5.39;55.61;100875.50;10427627;28;20055;-69
2023/03/03 21:54:01;;;;;;;9.73;7.75;;;;;;;5.32;55.74;100875.81;10431997;28;20056;-69
2023/03/03 21:59:02;;;;;;;11.30;8.57;;;;;;;5.25;55.69;100874.38;10425519;28;20060;-70
2023/03/03 22:04:04;;;;;;;10.35;7.95;;;;;;;5.12;56.72;100884.69;10422479;28;20056;-70
2023/03/03 22:09:07;;;;;;;10.25;7.18;;;;;;;5.12;56.72;100892.59;10423169;28;20531;-70
2023/03/03 22:14:08;;;;;;;11.25;8.55;;;;;;;5.10;56.76;100885.69;10422402;28;20063;-72
2023/03/03 22:19:10;;;;;;;13.65;8.85;;;;;;;5.00;57.04;100898.47;10427338;28;20197;-70
2023/03/03 22:24:11;;;;;;;13.27;8.93;;;;;;;4.93;57.86;100889.97;10423688;28;20195;-71
2023/03/03 22:29:15;;;;;;;13.50;9.50;;;;;;;4.98;57.74;100902.09;10425322;28;20059;-69
2023/03/03 22:34:17;;;;;;;13.13;8.88;;;;;;;4.76;58.51;100882.00;10427261;28;20369;-71
2023/03/03 22:39:18;;;;;;;12.30;9.65;;;;;;;4.82;58.43;100894.91;10423401;28;20060;-75
2023/03/03 22:44:20;;;;;;;12.75;9.27;;;;;;;4.86;58.11;100900.88;10420051;28;20102;-74
2023/03/03 22:49:21;;;;;;;12.48;8.57;;;;;;;4.87;58.42;100913.16;10423762;28;20198;-71
2023/03/03 22:54:23;;;;;;;11.93;8.95;;;;;;;4.76;58.57;100905.75;10408997;28;20064;-71
2023/03/03 22:59:25;;;;;;;12.82;9.32;;;;;;;4.66;59.52;100901.81;10421548;28;20471;-70
2023/03/03 23:04:26;;;;;;;12.35;8.77;;;;;;;4.64;59.23;100904.53;10395091;28;20055;-67
2023/03/03 23:09:28;;;;;;;12.85;10.02;;;;;;;4.59;59.28;100894.19;10414961;28;20044;-70
2023/03/03 23:14:29;;;;;;;13.45;9.65;;;;;;;4.49;59.92;100894.63;10414751;28;20108;-69
2023/03/03 23:19:30;;;;;;;13.38;9.20;;;;;;;4.45;60.19;100904.47;10414775;28;20051;-69
2023/03/03 23:24:32;;;;;;;14.52;10.45;;;;;;;4.48;59.98;100908.78;10418771;28;20135;-71
2023/03/03 23:29:34;;;;;;;13.88;9.13;;;;;;;4.23;59.76;100881.72;10420504;28;20132;-68
2023/03/03 23:34:35;;;;;;;14.10;10.20;;;;;;;4.36;60.96;100904.91;10418168;28;20140;-70
2023/03/03 23:39:39;;;;;;;13.18;10.32;;;;;;;4.35;61.25;100903.16;10420281;28;20457;-69
2023/03/03 23:44:40;;;;;;;14.90;9.88;;;;;;;4.27;61.08;100897.41;10418123;28;20049;-70